Andover, SD

7:20 PM CDT on August 01, 2014 (GMT -0500)
KSDGROTO1 Elev 1295 ft | 45.45 °N, 98.10 °W | Change Station

Current weather conditions updated 5 minutes ago

Clear
Clear
83.4 °F
Feels Like 83 °F
N
3.0
Wind Variable Wind from SE
Gusts 5.0 mph

Tomorrow is forecast to be nearly the same temperature as today. Slight chance of a thunderstorm tomorrow night.

Today
High -- | Low -- °F
--% Chance of Precip.
Yesterday
High -- | Low -- °F
Precip. -- in
6:15 AM 8:59 PM
Waxing Crescent, 30% visible
Pressure 30.04 in
Visibility 9.0 miles
Clouds Clear
Heat Index 83 °F
Dew Point 59 °F
Humidity 43%
Rainfall 0.00 in
Snow Depth Not available.
UV 2 out of 12
Pollen 7.80 out of 12
Air Quality Not available.
Flu Activity Not available.
METAR KABR 012353Z AUTO 06005KT 9SM CLR 28/13 A3005 RMK AO2 SLP172 T02780133 10306 20272 58005

More Conditions Fewer Conditions

Pressure 30.04 in
Visibility 9.0 miles
Clouds Clear
Heat Index 83 °F
Dew Point 59 °F
Humidity 43%
Rainfall 0.00 in
Snow Depth Not available.
UV 2 out of 12
Pollen 7.80 out of 12
Air Quality Not available.
Flu Activity Not available.
METAR KABR 012353Z AUTO 06005KT 9SM CLR 28/13 A3005 RMK AO2 SLP172 T02780133 10306 20272 58005

More Conditions Fewer Conditions

10-Day Weather Forecast

Almanac

Astronomy

Aug. 01, 2014 Rise Set
Actual Time 6:15 AM CDT 8:59 PM CDT
Civil Twilight 5:41 AM CDT 9:33 PM CDT
Nautical Twilight 4:58 AM CDT 10:16 PM CDT
Astronomical Twilight 4:08 AM CDT 11:05 PM CDT
Moon 11:59 AM CDT (8/1) 11:25 PM CDT (8/1)
Length of Visible Light 15h 51m
Length of Day
14h 43m
Tomorrow will be 2m 28s shorter.
Waxing Crescent, 30% of the Moon is Illuminated
Today
Waxing Crescent
Aug 3
First Quarter
Aug 10
Full
Aug 17
Last Quarter
Aug 25
New

Today's Extremes

State Highs State Lows

Community

WunderPhotos

Upload Photos

1,739,763 photos uploaded!

Nearby

Snow Depth

Station Depth Elevation
Blind Park 0 in 6890 ft

Earthquake Activity

City Distance Mag. Time & Date
No recent earthquake activity has been reported nearby.
Minimum magnitude displayed is 2.5.

Coastal Water Temperatures

Place Temperature
No Stations Reporting

Nearby Weather Stations

Station Location Temp. Heat Index Dew Point Humidity Wind Precip. Elev Updated Type
Groton, SD 83.4 °F 83 °F 59 °F 43% SE  at  3.0 mph 0.00 in / hr 1295 ft 7:15 PM CDT Normal
NonFedAWOS WEBSTERMUNC , Webster, SD 82 °F 81 °F 54 °F 37% North  at  0 mph 0.00 in / hr 1854 ft 5:55 PM CDT MADIS

Show More Stations Show Fewer Stations